Time;durP1;ratioP1;P1;durP2;ratioP2;P2;SDS_P1;SDS_P2;PMS_P1;PMS_P2;Temp;Humidity;BMP_temperature;BMP_pressure;BME280_temperature;BME280_humidity;BME280_pressure;Samples;Min_cycle;Max_cycle;Signal;HPM_P1;HPM_P2
2022/07/11 00:01:33;;;;;;;;;;;;;;;25.21;86.45;99597.56;6253422;23;19938;-79
2022/07/11 00:03:59;;;;;;;;;;;;;;;25.23;86.97;99598.13;6249312;23;19927;-79
2022/07/11 00:06:24;;;;;;;;;;;;;;;25.22;86.36;99599.19;6231618;23;19912;-81
2022/07/11 00:08:50;;;;;;;;;;;;;;;25.22;87.06;99609.97;6255020;23;19958;-79
2022/07/11 00:11:15;;;;;;;;;;;;;;;25.28;87.22;99611.72;6247347;23;19966;-80
2022/07/11 00:13:40;;;;;;;;;;;;;;;25.31;85.86;99611.28;6246593;23;19969;-79
2022/07/11 00:16:06;;;;;;;;;;;;;;;25.18;86.16;99606.94;6248005;23;19915;-79
2022/07/11 00:18:31;;;;;;;;;;;;;;;25.08;86.87;99616.69;6219758;23;19907;-79
2022/07/11 00:20:57;;;;;;;;;;;;;;;24.98;87.36;99614.56;6245534;23;19933;-79
2022/07/11 00:23:22;;;;;;;;;;;;;;;25.01;87.88;99616.00;6218865;23;20193;-78
2022/07/11 00:25:48;;;;;;;;;;;;;;;25.03;86.89;99616.59;6245175;23;19908;-77
2022/07/11 00:28:13;;;;;;;;;;;;;;;25.07;87.49;99615.06;6243800;23;19946;-79
2022/07/11 00:30:39;;;;;;;;;;;;;;;25.12;87.28;99615.16;6243830;23;19934;-78
2022/07/11 00:33:04;;;;;;;;;;;;;;;25.14;86.54;99608.47;6243323;23;19966;-77
2022/07/11 00:35:30;;;;;;;;;;;;;;;25.04;86.48;99618.19;6243917;23;19911;-79
2022/07/11 00:37:55;;;;;;;;;;;;;;;24.96;87.43;99623.97;6243666;23;19907;-78
2022/07/11 00:40:20;;;;;;;;;;;;;;;24.99;87.59;99623.50;6219326;23;19978;-79
2022/07/11 00:42:46;;;;;;;;;;;;;;;24.95;87.40;99627.72;6245525;23;19915;-80
2022/07/11 00:45:11;;;;;;;;;;;;;;;24.91;87.63;99626.56;6245649;23;19911;-78
2022/07/11 00:47:37;;;;;;;;;;;;;;;24.80;88.06;99626.25;6244128;23;19919;-78
2022/07/11 00:50:03;;;;;;;;;;;;;;;24.69;88.98;99629.78;6243163;23;19919;-78
2022/07/11 00:52:28;;;;;;;;;;;;;;;24.64;89.54;99626.94;6243006;23;19911;-77
2022/07/11 00:54:54;;;;;;;;;;;;;;;24.68;90.30;99628.13;6242871;23;19999;-78
2022/07/11 00:57:20;;;;;;;;;;;;;;;24.72;89.56;99623.09;6243067;23;19911;-78
2022/07/11 00:59:46;;;;;;;;;;;;;;;24.71;88.90;99627.66;6243223;23;19957;-78
2022/07/11 01:02:11;;;;;;;;;;;;;;;24.69;88.94;99624.38;6242417;23;19915;-79
2022/07/11 01:04:37;;;;;;;;;;;;;;;24.70;88.91;99630.59;6242962;23;19974;-78
2022/07/11 01:07:02;;;;;;;;;;;;;;;24.66;89.00;99618.63;6242861;23;19990;-80
2022/07/11 01:09:28;;;;;;;;;;;;;;;24.61;90.00;99627.44;6243207;23;19907;-81
2022/07/11 01:11:53;;;;;;;;;;;;;;;24.46;89.90;99624.34;6243698;23;19973;-80
2022/07/11 01:14:18;;;;;;;;;;;;;;;24.25;90.69;99616.78;6244154;23;19911;-81
2022/07/11 01:16:44;;;;;;;;;;;;;;;24.04;92.14;99626.16;6243326;23;19939;-79
2022/07/11 01:19:09;;;;;;;;;;;;;;;23.89;93.31;99618.47;6215497;23;19965;-79
2022/07/11 01:21:39;;;;;;;;;;;;;;;23.76;93.86;99615.94;6241412;23;19915;-78
2022/07/11 01:24:04;;;;;;;;;;;;;;;23.65;94.22;99620.22;6241980;23;20317;-78
2022/07/11 01:26:32;;;;;;;;;;;;;;;23.59;95.96;99623.81;6216458;23;19919;-78
2022/07/11 01:29:10;;;;;;;;;;;;;;;23.66;95.20;99613.81;6243013;23;20325;-80
2022/07/11 01:31:40;;;;;;;;;;;;;;;23.73;94.88;99613.72;6243791;23;19915;-79
2022/07/11 01:34:05;;;;;;;;;;;;;;;23.69;94.89;99617.91;6243009;23;20395;-79
2022/07/11 01:36:31;;;;;;;;;;;;;;;23.62;95.46;99611.78;6243315;23;19922;-79
2022/07/11 01:38:56;;;;;;;;;;;;;;;23.63;96.22;99608.03;6242264;23;19922;-79
2022/07/11 01:41:22;;;;;;;;;;;;;;;23.56;96.77;99618.88;6243112;23;19911;-79
2022/07/11 01:43:47;;;;;;;;;;;;;;;23.45;97.45;99611.53;6242701;23;19981;-79
2022/07/11 01:46:13;;;;;;;;;;;;;;;23.41;96.66;99610.31;6242116;23;19922;-79
2022/07/11 01:48:38;;;;;;;;;;;;;;;23.40;96.50;99624.00;6242733;23;19970;-79
2022/07/11 01:51:04;;;;;;;;;;;;;;;23.37;97.80;99624.47;6242593;23;19911;-79
2022/07/11 01:53:29;;;;;;;;;;;;;;;23.32;96.96;99621.63;6243382;23;19911;-79
2022/07/11 01:55:55;;;;;;;;;;;;;;;23.25;97.70;99627.91;6243329;23;19908;-80
2022/07/11 01:58:20;;;;;;;;;;;;;;;23.13;97.94;99629.69;6243761;23;19958;-80
2022/07/11 02:00:46;;;;;;;;;;;;;;;23.13;98.33;99623.47;6243925;23;19919;-81
2022/07/11 02:03:11;;;;;;;;;;;;;;;23.08;98.99;99629.53;6244007;23;19916;-81
2022/07/11 02:05:39;;;;;;;;;;;;;;;23.05;98.88;99624.56;6244279;23;19946;-79
2022/07/11 02:08:12;;;;;;;;;;;;;;;23.05;99.25;99632.66;6215788;23;20380;-79
2022/07/11 02:10:42;;;;;;;;;;;;;;;23.00;99.58;99629.81;6243898;23;19922;-80
2022/07/11 02:13:09;;;;;;;;;;;;;;;22.96;99.68;99634.00;6243607;23;19915;-78
2022/07/11 02:15:35;;;;;;;;;;;;;;;22.98;100.00;99636.44;6247628;23;19911;-79
2022/07/11 02:18:00;;;;;;;;;;;;;;;22.97;100.00;99635.66;6250030;23;19990;-78
2022/07/11 02:20:26;;;;;;;;;;;;;;;22.94;100.00;99646.00;6221368;23;19915;-79
2022/07/11 02:22:51;;;;;;;;;;;;;;;22.91;100.00;99652.66;6247096;23;19916;-80
2022/07/11 02:25:17;;;;;;;;;;;;;;;22.93;100.00;99655.94;6251377;23;19954;-78
2022/07/11 02:27:43;;;;;;;;;;;;;;;22.90;100.00;99659.09;6233608;23;19934;-79
2022/07/11 02:30:08;;;;;;;;;;;;;;;22.74;100.00;99662.31;6223855;23;19915;-78
2022/07/11 02:32:34;;;;;;;;;;;;;;;22.76;100.00;99660.22;6243657;23;19911;-78
2022/07/11 02:34:59;;;;;;;;;;;;;;;22.77;100.00;99656.50;6241263;23;19919;-78
2022/07/11 02:37:25;;;;;;;;;;;;;;;22.71;99.48;99657.34;6242979;23;19912;-78
2022/07/11 02:39:51;;;;;;;;;;;;;;;22.68;99.23;99653.22;6242015;23;19942;-79
2022/07/11 02:42:16;;;;;;;;;;;;;;;22.69;99.04;99649.47;6242597;23;19911;-78
2022/07/11 02:44:41;;;;;;;;;;;;;;;22.60;98.91;99663.44;6242537;23;19907;-79
2022/07/11 02:47:07;;;;;;;;;;;;;;;22.59;99.02;99665.28;6241917;23;19911;-79
2022/07/11 02:49:32;;;;;;;;;;;;;;;22.62;99.29;99664.03;6242355;23;19935;-78
2022/07/11 02:51:58;;;;;;;;;;;;;;;22.62;99.12;99669.44;6241958;23;20038;-80
2022/07/11 02:54:24;;;;;;;;;;;;;;;22.64;98.97;99662.78;6215340;23;19911;-79
2022/07/11 02:56:49;;;;;;;;;;;;;;;22.65;99.13;99675.19;6242295;23;19986;-81
2022/07/11 02:59:15;;;;;;;;;;;;;;;22.67;99.54;99664.22;6242632;23;19911;-79
2022/07/11 03:01:41;;;;;;;;;;;;;;;22.59;99.83;99665.28;6190626;23;19986;-79
2022/07/11 03:04:09;;;;;;;;;;;;;;;22.60;99.99;99666.13;6242219;23;19959;-79
2022/07/11 03:06:34;;;;;;;;;;;;;;;22.56;100.00;99654.16;6215779;23;20284;-78
2022/07/11 03:09:00;;;;;;;;;;;;;;;22.57;100.00;99666.53;6242027;23;19915;-81
2022/07/11 03:11:25;;;;;;;;;;;;;;;22.50;100.00;99666.59;6257953;23;19911;-79
2022/07/11 03:13:51;;;;;;;;;;;;;;;22.53;100.00;99660.78;6255502;23;19915;-80
2022/07/11 03:16:16;;;;;;;;;;;;;;;22.55;100.00;99664.09;6255556;23;19946;-80
2022/07/11 03:18:42;;;;;;;;;;;;;;;22.54;100.00;99673.19;6248746;23;19907;-80
2022/07/11 03:21:08;;;;;;;;;;;;;;;22.47;100.00;99677.78;6241802;23;19911;-80
2022/07/11 03:23:34;;;;;;;;;;;;;;;22.44;100.00;99679.03;6242302;23;19997;-79
2022/07/11 03:26:00;;;;;;;;;;;;;;;22.43;99.83;99677.41;6242054;23;19943;-80
2022/07/11 03:28:25;;;;;;;;;;;;;;;22.33;99.16;99687.78;6242134;23;19918;-79
2022/07/11 03:30:51;;;;;;;;;;;;;;;22.33;99.62;99687.78;6241768;23;19947;-79
2022/07/11 03:33:16;;;;;;;;;;;;;;;22.37;100.00;99689.03;6242159;23;19934;-79
2022/07/11 03:35:42;;;;;;;;;;;;;;;22.34;99.17;99689.44;6242503;23;19918;-79
2022/07/11 03:38:11;;;;;;;;;;;;;;;22.32;99.44;99694.22;6241589;23;19982;-80
2022/07/11 03:40:36;;;;;;;;;;;;;;;22.34;100.00;99694.81;6216070;23;20304;-79
2022/07/11 03:43:02;;;;;;;;;;;;;;;22.35;100.00;99695.63;6242212;23;19911;-80
2022/07/11 03:45:27;;;;;;;;;;;;;;;22.34;100.00;99704.75;6242571;23;19982;-79
2022/07/11 03:47:53;;;;;;;;;;;;;;;22.36;100.00;99698.13;6214930;23;19915;-78
2022/07/11 03:50:19;;;;;;;;;;;;;;;22.39;99.65;99697.69;6242336;23;20038;-79
2022/07/11 03:52:44;;;;;;;;;;;;;;;22.38;100.00;99704.09;6242523;23;19922;-79
2022/07/11 03:55:09;;;;;;;;;;;;;;;22.40;100.00;99703.88;6243257;23;19919;-80
2022/07/11 03:57:36;;;;;;;;;;;;;;;22.36;99.93;99708.88;6244314;23;19918;-79
2022/07/11 04:00:04;;;;;;;;;;;;;;;22.32;99.82;99707.66;6243659;23;19919;-80
2022/07/11 04:02:30;;;;;;;;;;;;;;;22.33;100.00;99709.28;6243808;23;19907;-79
2022/07/11 04:04:55;;;;;;;;;;;;;;;22.35;100.00;99711.78;6243511;23;19942;-78
2022/07/11 04:07:20;;;;;;;;;;;;;;;22.38;100.00;99717.53;6246399;23;19911;-78
2022/07/11 04:09:46;;;;;;;;;;;;;;;22.38;100.00;99717.53;6246311;23;20073;-78
2022/07/11 04:12:11;;;;;;;;;;;;;;;22.36;100.00;99711.56;6246664;23;19961;-77
2022/07/11 04:14:37;;;;;;;;;;;;;;;22.37;100.00;99715.91;6217945;23;19947;-78
2022/07/11 04:17:03;;;;;;;;;;;;;;;22.35;100.00;99717.97;6248611;23;19911;-76
2022/07/11 04:19:28;;;;;;;;;;;;;;;22.32;100.00;99723.78;6253839;23;19907;-77
2022/07/11 04:21:54;;;;;;;;;;;;;;;22.26;100.00;99719.28;6255470;23;19908;-78
2022/07/11 04:24:19;;;;;;;;;;;;;;;22.27;100.00;99726.28;6254570;23;19966;-77
2022/07/11 04:26:47;;;;;;;;;;;;;;;22.27;100.00;99731.66;6224435;23;19914;-79
2022/07/11 04:29:12;;;;;;;;;;;;;;;22.20;100.00;99738.94;6255213;23;19911;-78
2022/07/11 04:31:39;;;;;;;;;;;;;;;22.11;100.00;99742.06;6246256;23;19918;-80
2022/07/11 04:34:04;;;;;;;;;;;;;;;22.01;100.00;99740.66;6217404;23;19908;-79
2022/07/11 04:36:30;;;;;;;;;;;;;;;21.98;100.00;99748.31;6217612;23;19918;-80
2022/07/11 04:38:55;;;;;;;;;;;;;;;22.01;100.00;99753.28;6249262;23;19927;-78
2022/07/11 04:41:21;;;;;;;;;;;;;;;22.06;100.00;99745.41;6256477;23;19916;-78
2022/07/11 04:43:46;;;;;;;;;;;;;;;22.09;100.00;99744.97;6258901;23;19915;-79
2022/07/11 04:46:11;;;;;;;;;;;;;;;22.04;100.00;99747.47;6251243;23;19918;-79
2022/07/11 04:48:38;;;;;;;;;;;;;;;22.02;100.00;99755.75;6250864;23;19923;-78
2022/07/11 04:51:04;;;;;;;;;;;;;;;22.11;100.00;99761.72;6245889;23;19911;-76
2022/07/11 04:53:29;;;;;;;;;;;;;;;22.18;100.00;99759.81;6242805;23;19910;-72
2022/07/11 04:55:55;;;;;;;;;;;;;;;22.18;100.00;99759.00;6242561;23;19915;-72
2022/07/11 04:58:20;;;;;;;;;;;;;;;22.25;100.00;99763.31;6242752;23;19911;-72
2022/07/11 05:00:46;;;;;;;;;;;;;;;22.35;100.00;99763.69;6243043;23;19935;-71
2022/07/11 05:03:12;;;;;;;;;;;;;;;22.43;100.00;99757.25;6243912;23;19938;-72
2022/07/11 05:05:37;;;;;;;;;;;;;;;22.38;100.00;99763.25;6243571;23;19939;-72
2022/07/11 05:08:03;;;;;;;;;;;;;;;22.29;100.00;99764.53;6241914;23;19912;-71
2022/07/11 05:10:31;;;;;;;;;;;;;;;22.27;100.00;99780.03;6242394;23;19912;-73
2022/07/11 05:12:56;;;;;;;;;;;;;;;22.27;100.00;99780.03;6241893;23;20021;-71
2022/07/11 05:15:22;;;;;;;;;;;;;;;22.31;100.00;99775.09;6242397;23;19915;-71
2022/07/11 05:17:48;;;;;;;;;;;;;;;22.35;100.00;99779.81;6242424;23;19947;-71
2022/07/11 05:20:13;;;;;;;;;;;;;;;22.45;100.00;99782.03;6242271;23;19911;-71
2022/07/11 05:22:38;;;;;;;;;;;;;;;22.52;100.00;99792.75;6242799;23;19907;-71
2022/07/11 05:25:04;;;;;;;;;;;;;;;22.54;100.00;99793.38;6241868;23;19934;-72
2022/07/11 05:27:30;;;;;;;;;;;;;;;22.48;100.00;99796.94;6242349;23;19930;-69
2022/07/11 05:29:55;;;;;;;;;;;;;;;22.46;100.00;99800.66;6242097;23;19911;-70
2022/07/11 05:32:20;;;;;;;;;;;;;;;22.55;100.00;99797.72;6240930;23;19990;-69
2022/07/11 05:34:46;;;;;;;;;;;;;;;22.61;99.73;99804.94;6242247;23;19965;-70
2022/07/11 05:37:11;;;;;;;;;;;;;;;22.73;99.08;99805.94;6241994;23;19925;-69
2022/07/11 05:39:37;;;;;;;;;;;;;;;22.81;97.77;99808.38;6242176;23;19911;-68
2022/07/11 05:42:02;;;;;;;;;;;;;;;22.88;96.88;99814.53;6241655;23;19911;-69
2022/07/11 05:44:28;;;;;;;;;;;;;;;22.92;95.73;99809.53;6242040;23;19918;-69
2022/07/11 05:46:57;;;;;;;;;;;;;;;22.97;95.62;99815.94;6241722;23;19954;-70
2022/07/11 05:49:23;;;;;;;;;;;;;;;22.97;94.33;99817.81;6242475;23;20364;-70
2022/07/11 05:51:49;;;;;;;;;;;;;;;23.00;94.82;99815.50;6214540;23;19915;-67
2022/07/11 05:54:16;;;;;;;;;;;;;;;23.10;92.98;99821.22;6240634;23;19911;-68
2022/07/11 05:56:42;;;;;;;;;;;;;;;23.17;91.63;99821.19;6240988;23;20305;-68
2022/07/11 05:59:07;;;;;;;;;;;;;;;23.16;90.63;99825.75;6240536;23;19918;-68
2022/07/11 06:01:32;;;;;;;;;;;;;;;23.21;91.00;99819.69;6240823;23;19919;-69
2022/07/11 06:03:59;;;;;;;;;;;;;;;23.25;90.16;99821.75;6240362;23;19915;-69
2022/07/11 06:06:25;;;;;;;;;;;;;;;23.22;89.45;99822.19;6241098;23;19958;-71
2022/07/11 06:08:50;;;;;;;;;;;;;;;23.21;90.04;99830.47;6239824;23;19911;-68
2022/07/11 06:11:15;;;;;;;;;;;;;;;23.26;89.86;99823.41;6240760;23;19908;-68
2022/07/11 06:13:42;;;;;;;;;;;;;;;23.32;89.63;99831.66;6239935;23;19939;-69
2022/07/11 06:16:08;;;;;;;;;;;;;;;23.33;89.70;99839.50;6240758;23;19974;-69
2022/07/11 06:18:37;;;;;;;;;;;;;;;23.37;89.65;99837.22;6241863;23;20325;-69
2022/07/11 06:21:03;;;;;;;;;;;;;;;23.41;88.61;99835.72;6240749;23;20353;-68
2022/07/11 06:23:29;;;;;;;;;;;;;;;23.49;88.56;99843.56;6240410;23;19915;-68
2022/07/11 06:25:55;;;;;;;;;;;;;;;23.50;87.49;99839.84;6214101;23;19934;-68
2022/07/11 06:28:20;;;;;;;;;;;;;;;23.51;87.22;99844.16;6239789;23;19998;-69
2022/07/11 06:30:46;;;;;;;;;;;;;;;23.62;86.67;99844.25;6240622;23;19919;-70
2022/07/11 06:33:11;;;;;;;;;;;;;;;23.73;87.32;99848.13;6241300;23;19950;-69
2022/07/11 06:35:37;;;;;;;;;;;;;;;23.81;84.79;99841.63;6241804;23;20175;-76
2022/07/11 06:38:02;;;;;;;;;;;;;;;23.81;84.09;99847.84;6240500;23;19935;-77
2022/07/11 06:40:27;;;;;;;;;;;;;;;23.82;84.03;99841.41;6241074;23;19911;-78
2022/07/11 06:42:54;;;;;;;;;;;;;;;23.90;83.59;99851.09;6240888;23;19931;-77
2022/07/11 06:45:19;;;;;;;;;;;;;;;23.94;83.24;99847.72;6241133;23;19977;-77
2022/07/11 06:47:45;;;;;;;;;;;;;;;24.00;83.39;99852.22;6241054;23;19915;-77
2022/07/11 06:50:11;;;;;;;;;;;;;;;24.04;82.63;99848.03;6240491;23;19922;-77
2022/07/11 06:52:36;;;;;;;;;;;;;;;24.12;82.56;99854.19;6241224;23;19915;-76
2022/07/11 06:55:02;;;;;;;;;;;;;;;24.18;81.98;99853.28;6240719;23;19915;-77
2022/07/11 06:57:27;;;;;;;;;;;;;;;24.23;82.16;99864.25;6241535;23;19954;-77
2022/07/11 06:59:53;;;;;;;;;;;;;;;24.29;80.63;99855.25;6241045;23;19950;-76
2022/07/11 07:02:18;;;;;;;;;;;;;;;24.33;79.73;99867.25;6214000;23;19934;-77
2022/07/11 07:04:44;;;;;;;;;;;;;;;24.38;80.16;99859.34;6242199;23;19907;-75
2022/07/11 07:07:09;;;;;;;;;;;;;;;24.43;80.63;99857.59;6241380;23;19911;-76
2022/07/11 07:09:35;;;;;;;;;;;;;;;24.50;80.50;99857.53;6241313;23;19912;-75
2022/07/11 07:12:00;;;;;;;;;;;;;;;24.55;79.70;99865.75;6241082;23;19918;-75
2022/07/11 07:14:26;;;;;;;;;;;;;;;24.57;79.84;99863.66;6241528;23;19919;-76
2022/07/11 07:16:51;;;;;;;;;;;;;;;24.64;78.86;99866.25;6214541;23;19915;-76
2022/07/11 07:19:17;;;;;;;;;;;;;;;24.66;79.41;99875.78;6214567;23;19982;-75
2022/07/11 07:21:42;;;;;;;;;;;;;;;24.68;78.53;99879.06;6241464;23;19973;-75
2022/07/11 07:24:07;;;;;;;;;;;;;;;24.70;78.16;99878.84;6240602;23;19922;-77
2022/07/11 07:26:33;;;;;;;;;;;;;;;24.76;78.03;99878.78;6214082;23;19911;-77
2022/07/11 07:28:59;;;;;;;;;;;;;;;24.81;78.71;99876.22;6215418;23;19922;-76
2022/07/11 07:31:24;;;;;;;;;;;;;;;24.88;78.27;99877.00;6243486;23;19943;-75
2022/07/11 07:33:50;;;;;;;;;;;;;;;24.90;77.61;99878.66;6242755;23;19907;-76
2022/07/11 07:36:16;;;;;;;;;;;;;;;24.90;77.61;99878.66;6243122;23;19966;-76
2022/07/11 07:38:43;;;;;;;;;;;;;;;24.91;78.60;99874.91;6243585;23;19943;-76
2022/07/11 07:41:12;;;;;;;;;;;;;;;24.89;77.31;99880.50;6243255;23;19915;-76
2022/07/11 07:43:37;;;;;;;;;;;;;;;24.88;77.45;99871.59;6216814;23;20253;-76
2022/07/11 07:46:04;;;;;;;;;;;;;;;24.86;77.98;99873.66;6241827;23;19919;-75
2022/07/11 07:48:29;;;;;;;;;;;;;;;24.86;77.78;99868.25;6242681;23;20361;-75
2022/07/11 07:50:55;;;;;;;;;;;;;;;24.90;77.37;99874.06;6242611;23;19993;-76
2022/07/11 07:53:20;;;;;;;;;;;;;;;24.95;76.69;99881.47;6216069;23;19970;-77
2022/07/11 07:55:45;;;;;;;;;;;;;;;24.96;76.81;99880.44;6243390;23;19915;-76
2022/07/11 07:58:11;;;;;;;;;;;;;;;24.97;76.65;99882.09;6215876;23;19915;-76
2022/07/11 08:03:20;;;;;;;;;;;;;;;24.99;78.20;99888.06;6216040;23;20226;-77
2022/07/11 08:05:46;;;;;;;;;;;;;;;25.03;76.44;99883.88;6242809;23;19942;-75
2022/07/11 08:08:11;;;;;;;;;;;;;;;25.06;76.37;99888.81;6242784;23;19926;-75
2022/07/11 08:10:37;;;;;;;;;;;;;;;25.05;76.78;99887.16;6243246;23;20683;-77
2022/07/11 08:13:02;;;;;;;;;;;;;;;25.06;77.00;99878.00;6191307;23;19911;-76
2022/07/11 08:15:28;;;;;;;;;;;;;;;25.11;77.02;99876.25;6216880;23;19989;-76
2022/07/11 08:17:53;;;;;;;;;;;;;;;25.21;77.53;99876.53;6242922;23;19918;-77
2022/07/11 08:20:19;;;;;;;;;;;;;;;25.28;77.64;99874.56;6242955;23;19911;-78
2022/07/11 08:22:44;;;;;;;;;;;;;;;25.19;76.52;99880.53;6243477;23;19911;-78
2022/07/11 08:25:10;;;;;;;;;;;;;;;25.20;76.55;99879.47;6242513;23;19919;-78
2022/07/11 08:27:37;;;;;;;;;;;;;;;25.28;76.47;99873.72;6242033;23;19912;-76
2022/07/11 08:30:04;;;;;;;;;;;;;;;25.39;76.14;99872.94;6241802;23;19911;-75
2022/07/11 08:32:30;;;;;;;;;;;;;;;25.55;75.72;99866.06;6241665;23;20280;-75
2022/07/11 08:34:55;;;;;;;;;;;;;;;25.62;74.24;99866.81;6242200;23;19969;-76
2022/07/11 08:37:20;;;;;;;;;;;;;;;25.55;74.25;99861.47;6244759;23;19911;-81
2022/07/11 08:39:46;;;;;;;;;;;;;;;25.61;74.63;99860.56;6246193;23;19986;-76
2022/07/11 08:42:12;;;;;;;;;;;;;;;25.68;74.57;99865.88;6242077;23;19927;-76
2022/07/11 08:44:37;;;;;;;;;;;;;;;25.75;73.84;99865.75;6241856;23;19912;-77
2022/07/11 08:47:05;;;;;;;;;;;;;;;25.75;73.39;99866.56;6241906;23;19923;-76
2022/07/11 08:49:31;;;;;;;;;;;;;;;25.85;73.39;99866.00;6241161;23;20233;-75
2022/07/11 08:51:57;;;;;;;;;;;;;;;25.92;72.97;99856.69;6240663;23;19911;-74
2022/07/11 08:54:23;;;;;;;;;;;;;;;25.95;72.29;99860.81;6242389;23;19935;-76
2022/07/11 08:56:52;;;;;;;;;;;;;;;25.94;71.67;99862.69;6243531;23;19907;-76
2022/07/11 08:59:18;;;;;;;;;;;;;;;25.98;71.63;99871.16;6243158;23;19981;-78
2022/07/11 09:01:44;;;;;;;;;;;;;;;25.97;71.58;99864.94;6242110;23;19916;-76
2022/07/11 09:04:10;;;;;;;;;;;;;;;26.00;72.64;99859.06;6241499;23;20283;-73
2022/07/11 09:06:35;;;;;;;;;;;;;;;26.10;72.83;99861.16;6241983;23;19908;-76
2022/07/11 09:09:02;;;;;;;;;;;;;;;26.23;71.49;99858.25;6241789;23;19915;-74
2022/07/11 09:11:50;;;;;;;;;;;;;;;26.31;72.09;99860.59;6214942;23;19915;-76
2022/07/11 09:14:23;;;;;;;;;;;;;;;26.38;71.95;99865.88;6241712;23;19958;-76
2022/07/11 09:17:03;;;;;;;;;;;;;;;26.44;71.44;99865.75;6241816;23;19915;-75
2022/07/11 09:19:30;;;;;;;;;;;;;;;26.47;71.67;99854.44;6241542;23;19911;-75
2022/07/11 09:27:45;;;;;;;;;;;;;;;26.66;69.19;99851.56;6241447;23;20248;-75
2022/07/11 09:30:22;;;;;;;;;;;;;;;26.69;67.41;99851.06;6240899;23;19915;-75
2022/07/11 09:32:54;;;;;;;;;;;;;;;26.76;66.38;99851.75;6241582;23;19943;-75
2022/07/11 09:35:20;;;;;;;;;;;;;;;26.80;65.73;99844.81;6241383;23;19919;-76
2022/07/11 09:37:47;;;;;;;;;;;;;;;26.84;67.55;99846.81;6241411;23;19994;-75
2022/07/11 09:40:13;;;;;;;;;;;;;;;26.91;68.53;99849.41;6240416;23;19919;-75
2022/07/11 09:42:48;;;;;;;;;;;;;;;27.02;66.15;99850.41;6241005;23;19994;-76
2022/07/11 09:45:14;;;;;;;;;;;;;;;26.97;66.46;99848.44;6241628;23;19915;-75
2022/07/11 09:47:47;;;;;;;;;;;;;;;26.91;65.28;99849.41;6241129;23;19911;-76
2022/07/11 09:50:13;;;;;;;;;;;;;;;26.86;65.10;99841.16;6214216;23;19962;-76
2022/07/11 09:52:38;;;;;;;;;;;;;;;26.87;64.42;99843.59;6241469;23;19911;-75
2022/07/11 09:55:05;;;;;;;;;;;;;;;26.85;63.26;99843.03;6241406;23;19998;-75
2022/07/11 09:57:32;;;;;;;;;;;;;;;26.87;63.77;99840.06;6241735;23;19912;-76
2022/07/11 09:59:57;;;;;;;;;;;;;;;26.89;63.70;99835.28;6241246;23;19947;-75
2022/07/11 10:02:24;;;;;;;;;;;;;;;26.93;64.54;99839.13;6241221;23;19911;-76
2022/07/11 10:04:49;;;;;;;;;;;;;;;26.97;64.71;99837.59;6242074;23;19907;-77
2022/07/11 10:07:15;;;;;;;;;;;;;;;27.01;62.88;99846.06;6215429;23;19911;-75
2022/07/11 10:09:40;;;;;;;;;;;;;;;27.02;64.60;99839.56;6240928;23;19918;-75
2022/07/11 10:12:07;;;;;;;;;;;;;;;27.05;63.77;99837.19;6242436;23;19986;-74
2022/07/11 10:14:35;;;;;;;;;;;;;;;27.05;63.27;99839.06;6242717;23;19912;-75
2022/07/11 10:17:05;;;;;;;;;;;;;;;26.97;64.04;99832.19;6242705;23;20210;-76
2022/07/11 10:19:37;;;;;;;;;;;;;;;26.98;65.04;99833.00;6217043;23;20001;-75
2022/07/11 10:22:06;;;;;;;;;;;;;;;27.03;66.05;99831.22;6242752;23;19929;-76
2022/07/11 10:24:36;;;;;;;;;;;;;;;27.06;64.71;99830.72;6242836;23;19908;-75
2022/07/11 10:27:10;;;;;;;;;;;;;;;27.12;64.81;99827.03;6241695;23;19916;-75
2022/07/11 10:29:44;;;;;;;;;;;;;;;27.23;65.83;99831.56;6242791;23;19911;-77
2022/07/11 10:32:11;;;;;;;;;;;;;;;27.32;65.48;99828.47;6242839;23;19915;-75
2022/07/11 10:34:36;;;;;;;;;;;;;;;27.37;66.69;99831.25;6242658;23;20285;-73
2022/07/11 10:37:05;;;;;;;;;;;;;;;27.40;67.98;99825.31;6241906;23;19912;-75
2022/07/11 10:39:36;;;;;;;;;;;;;;;27.46;67.19;99824.34;6242633;23;19934;-75
2022/07/11 10:42:03;;;;;;;;;;;;;;;27.49;68.65;99821.97;6241700;23;19969;-76
2022/07/11 10:44:46;;;;;;;;;;;;;;;27.50;68.31;99826.34;6242108;23;19926;-77
2022/07/11 10:47:30;;;;;;;;;;;;;;;27.48;67.36;99816.78;6241561;23;19994;-76
2022/07/11 10:49:57;;;;;;;;;;;;;;;27.47;68.18;99809.72;6241864;23;19977;-75
2022/07/11 10:52:23;;;;;;;;;;;;;;;27.62;65.56;99807.31;6242414;23;19911;-76
2022/07/11 10:55:05;;;;;;;;;;;;;;;27.66;65.26;99803.84;6242386;23;19990;-76
2022/07/11 10:57:56;;;;;;;;;;;;;;;27.71;65.45;99805.81;6242580;23;19923;-77
2022/07/11 11:00:21;;;;;;;;;;;;;;;27.74;68.11;99794.47;6242672;23;19908;-77
2022/07/11 11:03:02;;;;;;;;;;;;;;;27.82;68.63;99791.31;6243539;23;19998;-76
2022/07/11 11:05:54;;;;;;;;;;;;;;;27.96;68.31;99792.63;6244835;23;19907;-76
2022/07/11 11:08:31;;;;;;;;;;;;;;;28.04;66.37;99799.47;6239613;23;19912;-77
2022/07/11 11:10:57;;;;;;;;;;;;;;;28.01;66.34;99800.81;6244336;23;19912;-77
2022/07/11 11:13:23;;;;;;;;;;;;;;;28.00;66.11;99804.59;6244338;23;19919;-78
2022/07/11 11:15:50;;;;;;;;;;;;;;;27.99;65.48;99800.25;6244445;23;20324;-78
2022/07/11 11:18:24;;;;;;;;;;;;;;;28.02;63.66;99788.91;6244028;23;19911;-76
2022/07/11 11:20:59;;;;;;;;;;;;;;;27.99;64.04;99785.84;6244419;23;20241;-76
2022/07/11 11:23:26;;;;;;;;;;;;;;;28.02;63.84;99788.91;6245401;23;19911;-75
2022/07/11 11:25:52;;;;;;;;;;;;;;;28.13;64.00;99791.75;6243738;23;19911;-78
2022/07/11 11:28:21;;;;;;;;;;;;;;;28.23;64.06;99781.06;6244390;23;19980;-79
2022/07/11 11:30:53;;;;;;;;;;;;;;;28.33;64.73;99776.59;6217889;23;19919;-77
2022/07/11 11:33:19;;;;;;;;;;;;;;;28.38;65.23;99773.94;6244765;23;19939;-76
2022/07/11 11:35:45;;;;;;;;;;;;;;;28.46;64.56;99772.66;6245008;23;19914;-76
2022/07/11 11:38:12;;;;;;;;;;;;;;;28.57;63.41;99779.81;6244792;23;19954;-75
2022/07/11 11:40:46;;;;;;;;;;;;;;;28.61;63.15;99770.13;6244924;23;19908;-77
2022/07/11 11:43:17;;;;;;;;;;;;;;;28.69;63.25;99766.91;6244561;23;19993;-78
2022/07/11 11:45:48;;;;;;;;;;;;;;;28.81;62.60;99764.91;6244345;23;20244;-77
2022/07/11 11:48:31;;;;;;;;;;;;;;;28.97;60.77;99765.06;6244853;23;19945;-76
2022/07/11 11:51:03;;;;;;;;;;;;;;;29.03;60.32;99759.44;6244322;23;20248;-77
2022/07/11 11:53:29;;;;;;;;;;;;;;;29.09;60.34;99758.41;6245329;23;20285;-77
2022/07/11 11:55:55;;;;;;;;;;;;;;;29.04;59.75;99754.81;6243941;23;19990;-77
2022/07/11 11:58:20;;;;;;;;;;;;;;;28.99;59.68;99746.59;6245356;23;19911;-76
2022/07/11 12:00:55;;;;;;;;;;;;;;;28.96;59.44;99747.13;6244450;23;20401;-77
2022/07/11 12:03:20;;;;;;;;;;;;;;;28.94;58.86;99757.41;6244898;23;19982;-78
2022/07/11 12:05:53;;;;;;;;;;;;;;;28.81;59.07;99755.94;6244193;23;19931;-77
2022/07/11 12:08:28;;;;;;;;;;;;;;;28.74;59.52;99756.16;6217117;23;19911;-76
2022/07/11 12:10:54;;;;;;;;;;;;;;;28.71;59.61;99751.19;6243234;23;19942;-76
2022/07/11 12:13:20;;;;;;;;;;;;;;;28.65;59.62;99756.84;6244687;23;19911;-76
2022/07/11 12:18:29;;;;;;;;;;;;;;;28.78;58.89;99745.59;6243856;23;19912;-75
2022/07/11 12:20:56;;;;;;;;;;;;;;;28.82;58.55;99742.09;6242499;23;19918;-76
2022/07/11 12:23:21;;;;;;;;;;;;;;;28.94;58.70;99738.41;6244727;23;20220;-77
2022/07/11 12:25:48;;;;;;;;;;;;;;;29.08;58.40;99739.63;6244178;23;19990;-77
2022/07/11 12:28:14;;;;;;;;;;;;;;;29.31;57.05;99745.53;6243910;23;19915;-77
2022/07/11 12:30:39;;;;;;;;;;;;;;;29.40;56.85;99736.91;6243889;23;19925;-78
2022/07/11 12:33:06;;;;;;;;;;;;;;;29.32;55.92;99730.03;6243417;23;19942;-77
2022/07/11 12:35:32;;;;;;;;;;;;;;;29.37;56.18;99723.84;6243876;23;19911;-77
2022/07/11 12:37:57;;;;;;;;;;;;;;;29.43;55.79;99731.78;6243741;23;19935;-77
2022/07/11 12:40:23;;;;;;;;;;;;;;;29.68;54.36;99729.22;6244540;23;19912;-77
2022/07/11 12:42:48;;;;;;;;;;;;;;;29.98;52.84;99728.56;6243583;23;19912;-77
2022/07/11 12:45:15;;;;;;;;;;;;;;;30.34;51.30;99720.53;6242355;23;19918;-76
2022/07/11 12:47:45;;;;;;;;;;;;;;;30.66;49.87;99717.66;6243199;23;19935;-77
2022/07/11 12:50:17;;;;;;;;;;;;;;;31.09;49.40;99719.91;6242635;23;19919;-77
2022/07/11 12:52:47;;;;;;;;;;;;;;;31.55;48.57;99709.75;6243696;23;20373;-77
2022/07/11 12:55:23;;;;;;;;;;;;;;;32.06;47.15;99707.69;6243112;23;19907;-78